Terminal Aerodrome Forecast
Issued by NWS Shreveport, LA

Home | Current Version | Previous Version | Text Only | Print | Product List | Glossary On
Versions: 1 2 3 4 5 6 7 8 9 10 11 12 13 14 15 16 17 18
000
FTUS44 KSHV 062330
TAFMLU
TAF
KMLU 062330Z 0700/0724 18006KT P6SM SCT250
      TEMPO 0710/0714 3SM BR BKN005
     FM071400 21010KT P6SM BKN010
     FM071700 21010G18KT P6SM VCTS SCT040CB SCT250=

USA.gov is the U.S. government's official web portal to all federal, state and local government web resources and services.